sensor_id;sensor_type;location;lat;lon;timestamp;pressure;altitude;pressure_sealevel;temperature;humidity
53011;BME280;42803;55.762;38.084;2024-03-08T00:00:44;99646.75;;;-6.38;97.71
53011;BME280;42803;55.762;38.084;2024-03-08T00:03:13;99635.47;;;-6.40;98.23
53011;BME280;42803;55.762;38.084;2024-03-08T00:05:42;99633.91;;;-6.45;99.16
53011;BME280;42803;55.762;38.084;2024-03-08T00:08:12;99626.72;;;-6.42;99.21
53011;BME280;42803;55.762;38.084;2024-03-08T00:10:41;99619.06;;;-6.36;100.00
53011;BME280;42803;55.762;38.084;2024-03-08T00:13:10;99624.75;;;-6.26;99.53
53011;BME280;42803;55.762;38.084;2024-03-08T00:15:39;99615.91;;;-6.17;98.60
53011;BME280;42803;55.762;38.084;2024-03-08T00:18:10;99603.84;;;-6.12;98.34
53011;BME280;42803;55.762;38.084;2024-03-08T00:20:40;99607.28;;;-6.06;97.45
53011;BME280;42803;55.762;38.084;2024-03-08T00:23:09;99607.94;;;-6.07;97.05
53011;BME280;42803;55.762;38.084;2024-03-08T00:25:38;99598.78;;;-6.12;96.93
53011;BME280;42803;55.762;38.084;2024-03-08T00:28:08;99599.09;;;-6.22;97.03
53011;BME280;42803;55.762;38.084;2024-03-08T00:30:41;99588.25;;;-6.26;97.61
53011;BME280;42803;55.762;38.084;2024-03-08T00:33:12;99590.16;;;-6.31;98.00
53011;BME280;42803;55.762;38.084;2024-03-08T00:35:41;99584.69;;;-6.40;98.56
53011;BME280;42803;55.762;38.084;2024-03-08T00:38:10;99578.25;;;-6.43;98.95
53011;BME280;42803;55.762;38.084;2024-03-08T00:40:40;99575.53;;;-6.50;100.00
53011;BME280;42803;55.762;38.084;2024-03-08T00:43:10;99570.66;;;-6.49;100.00
53011;BME280;42803;55.762;38.084;2024-03-08T00:45:39;99573.56;;;-6.34;100.00
53011;BME280;42803;55.762;38.084;2024-03-08T00:48:11;99564.22;;;-6.23;100.00
53011;BME280;42803;55.762;38.084;2024-03-08T00:50:41;99555.38;;;-6.14;100.00
53011;BME280;42803;55.762;38.084;2024-03-08T00:53:13;99556.72;;;-6.10;100.00
53011;BME280;42803;55.762;38.084;2024-03-08T00:55:42;99544.66;;;-6.05;99.74
53011;BME280;42803;55.762;38.084;2024-03-08T00:58:13;99552.47;;;-5.98;99.83
53011;BME280;42803;55.762;38.084;2024-03-08T01:00:43;99544.59;;;-6.00;99.75
53011;BME280;42803;55.762;38.084;2024-03-08T01:03:14;99545.84;;;-6.09;99.73
53011;BME280;42803;55.762;38.084;2024-03-08T01:05:43;99555.94;;;-6.03;99.44
53011;BME280;42803;55.762;38.084;2024-03-08T01:08:13;99549.69;;;-6.00;98.81
53011;BME280;42803;55.762;38.084;2024-03-08T01:10:42;99556.63;;;-5.99;98.36
53011;BME280;42803;55.762;38.084;2024-03-08T01:13:11;99545.03;;;-5.97;97.67
53011;BME280;42803;55.762;38.084;2024-03-08T01:15:40;99537.53;;;-5.90;97.22
53011;BME280;42803;55.762;38.084;2024-03-08T01:18:09;99538.88;;;-5.86;96.92
53011;BME280;42803;55.762;38.084;2024-03-08T01:20:40;99540.00;;;-5.84;96.46
53011;BME280;42803;55.762;38.084;2024-03-08T01:23:09;99537.97;;;-5.86;96.44
53011;BME280;42803;55.762;38.084;2024-03-08T01:25:39;99530.03;;;-5.95;96.72
53011;BME280;42803;55.762;38.084;2024-03-08T01:28:09;99526.97;;;-5.93;96.65
53011;BME280;42803;55.762;38.084;2024-03-08T01:30:38;99537.13;;;-5.93;96.90
53011;BME280;42803;55.762;38.084;2024-03-08T01:33:07;99539.88;;;-5.91;96.73
53011;BME280;42803;55.762;38.084;2024-03-08T01:35:37;99532.97;;;-5.92;96.54
53011;BME280;42803;55.762;38.084;2024-03-08T01:38:10;99533.09;;;-6.03;96.57
53011;BME280;42803;55.762;38.084;2024-03-08T01:40:39;99535.09;;;-6.19;96.88
53011;BME280;42803;55.762;38.084;2024-03-08T01:43:19;99535.19;;;-6.30;97.40
53011;BME280;42803;55.762;38.084;2024-03-08T01:45:48;99526.50;;;-6.38;97.87
53011;BME280;42803;55.762;38.084;2024-03-08T01:48:18;99538.63;;;-6.48;98.33
53011;BME280;42803;55.762;38.084;2024-03-08T01:50:50;99536.75;;;-6.49;98.72
53011;BME280;42803;55.762;38.084;2024-03-08T01:53:22;99524.97;;;-6.49;98.29
53011;BME280;42803;55.762;38.084;2024-03-08T01:55:56;99523.38;;;-6.48;98.40
53011;BME280;42803;55.762;38.084;2024-03-08T01:58:26;99520.88;;;-6.54;98.45
53011;BME280;42803;55.762;38.084;2024-03-08T02:00:57;99517.50;;;-6.66;99.54
53011;BME280;42803;55.762;38.084;2024-03-08T02:03:26;99518.50;;;-6.71;100.00
53011;BME280;42803;55.762;38.084;2024-03-08T02:05:55;99520.53;;;-6.68;100.00
53011;BME280;42803;55.762;38.084;2024-03-08T02:08:28;99506.91;;;-6.69;100.00
53011;BME280;42803;55.762;38.084;2024-03-08T02:10:57;99503.94;;;-6.72;100.00
53011;BME280;42803;55.762;38.084;2024-03-08T02:13:27;99507.41;;;-6.71;100.00
53011;BME280;42803;55.762;38.084;2024-03-08T02:15:58;99509.97;;;-6.71;100.00
53011;BME280;42803;55.762;38.084;2024-03-08T02:18:29;99512.25;;;-6.73;100.00
53011;BME280;42803;55.762;38.084;2024-03-08T02:21:00;99507.63;;;-6.70;100.00
53011;BME280;42803;55.762;38.084;2024-03-08T02:23:30;99504.56;;;-6.62;99.98
53011;BME280;42803;55.762;38.084;2024-03-08T02:26:00;99497.59;;;-6.57;99.39
53011;BME280;42803;55.762;38.084;2024-03-08T02:28:30;99503.34;;;-6.52;99.75
53011;BME280;42803;55.762;38.084;2024-03-08T02:30:59;99495.19;;;-6.44;98.73
53011;BME280;42803;55.762;38.084;2024-03-08T02:33:28;99489.00;;;-6.28;98.17
53011;BME280;42803;55.762;38.084;2024-03-08T02:35:59;99491.34;;;-6.29;98.51
53011;BME280;42803;55.762;38.084;2024-03-08T02:38:29;99484.41;;;-6.30;97.91
53011;BME280;42803;55.762;38.084;2024-03-08T02:40:58;99481.22;;;-6.35;98.32
53011;BME280;42803;55.762;38.084;2024-03-08T02:43:27;99487.28;;;-6.40;98.47
53011;BME280;42803;55.762;38.084;2024-03-08T02:45:56;99483.22;;;-6.51;98.32
53011;BME280;42803;55.762;38.084;2024-03-08T02:48:25;99478.69;;;-6.59;98.64
53011;BME280;42803;55.762;38.084;2024-03-08T02:50:55;99488.03;;;-6.71;99.36
53011;BME280;42803;55.762;38.084;2024-03-08T02:53:26;99481.06;;;-6.66;99.88
53011;BME280;42803;55.762;38.084;2024-03-08T02:55:55;99484.16;;;-6.80;100.00
53011;BME280;42803;55.762;38.084;2024-03-08T02:58:24;99476.34;;;-6.81;100.00
53011;BME280;42803;55.762;38.084;2024-03-08T03:00:53;99469.66;;;-6.81;100.00
53011;BME280;42803;55.762;38.084;2024-03-08T03:03:25;99462.34;;;-6.91;100.00
53011;BME280;42803;55.762;38.084;2024-03-08T03:05:55;99468.81;;;-6.93;100.00
53011;BME280;42803;55.762;38.084;2024-03-08T03:08:25;99460.06;;;-6.95;100.00
53011;BME280;42803;55.762;38.084;2024-03-08T03:10:55;99457.84;;;-7.04;100.00
53011;BME280;42803;55.762;38.084;2024-03-08T03:13:24;99445.69;;;-7.13;100.00
53011;BME280;42803;55.762;38.084;2024-03-08T03:15:53;99453.13;;;-7.20;100.00
53011;BME280;42803;55.762;38.084;2024-03-08T03:18:25;99449.88;;;-7.19;100.00
53011;BME280;42803;55.762;38.084;2024-03-08T03:20:55;99447.09;;;-7.15;100.00
53011;BME280;42803;55.762;38.084;2024-03-08T03:23:25;99448.25;;;-7.13;100.00
53011;BME280;42803;55.762;38.084;2024-03-08T03:25:54;99450.50;;;-7.08;100.00
53011;BME280;42803;55.762;38.084;2024-03-08T03:28:25;99447.44;;;-7.00;100.00
53011;BME280;42803;55.762;38.084;2024-03-08T03:30:56;99438.41;;;-6.98;100.00
53011;BME280;42803;55.762;38.084;2024-03-08T03:33:26;99431.69;;;-6.92;100.00
53011;BME280;42803;55.762;38.084;2024-03-08T03:35:55;99430.31;;;-6.90;100.00
53011;BME280;42803;55.762;38.084;2024-03-08T03:38:26;99432.78;;;-6.84;100.00
53011;BME280;42803;55.762;38.084;2024-03-08T03:40:55;99439.22;;;-6.81;100.00
53011;BME280;42803;55.762;38.084;2024-03-08T03:43:31;99432.56;;;-6.86;100.00
53011;BME280;42803;55.762;38.084;2024-03-08T03:46:01;99429.53;;;-6.83;100.00
53011;BME280;42803;55.762;38.084;2024-03-08T03:48:30;99425.13;;;-6.79;100.00
53011;BME280;42803;55.762;38.084;2024-03-08T03:51:00;99423.91;;;-6.75;100.00
53011;BME280;42803;55.762;38.084;2024-03-08T03:53:30;99422.09;;;-6.76;100.00
53011;BME280;42803;55.762;38.084;2024-03-08T03:56:00;99423.50;;;-6.78;100.00
53011;BME280;42803;55.762;38.084;2024-03-08T03:58:29;99429.22;;;-6.74;100.00
53011;BME280;42803;55.762;38.084;2024-03-08T04:00:58;99425.97;;;-6.73;100.00
53011;BME280;42803;55.762;38.084;2024-03-08T04:03:28;99424.41;;;-6.78;100.00
53011;BME280;42803;55.762;38.084;2024-03-08T04:05:57;99423.78;;;-6.82;100.00
53011;BME280;42803;55.762;38.084;2024-03-08T04:08:26;99415.75;;;-6.91;100.00
53011;BME280;42803;55.762;38.084;2024-03-08T04:10:57;99418.75;;;-6.88;100.00
53011;BME280;42803;55.762;38.084;2024-03-08T04:13:26;99421.72;;;-6.85;100.00
53011;BME280;42803;55.762;38.084;2024-03-08T04:15:55;99422.34;;;-6.80;100.00
53011;BME280;42803;55.762;38.084;2024-03-08T04:18:24;99418.31;;;-6.67;100.00
53011;BME280;42803;55.762;38.084;2024-03-08T04:20:54;99418.97;;;-6.63;100.00
53011;BME280;42803;55.762;38.084;2024-03-08T04:23:23;99411.56;;;-6.61;100.00
53011;BME280;42803;55.762;38.084;2024-03-08T04:25:52;99412.00;;;-6.58;100.00
53011;BME280;42803;55.762;38.084;2024-03-08T04:28:22;99398.81;;;-6.55;100.00
53011;BME280;42803;55.762;38.084;2024-03-08T04:30:54;99404.84;;;-6.60;100.00
53011;BME280;42803;55.762;38.084;2024-03-08T04:33:23;99402.59;;;-6.65;100.00
53011;BME280;42803;55.762;38.084;2024-03-08T04:35:52;99405.09;;;-6.59;100.00
53011;BME280;42803;55.762;38.084;2024-03-08T04:38:22;99397.94;;;-6.62;100.00
53011;BME280;42803;55.762;38.084;2024-03-08T04:40:51;99399.72;;;-6.55;100.00
53011;BME280;42803;55.762;38.084;2024-03-08T04:43:22;99395.09;;;-6.52;100.00
53011;BME280;42803;55.762;38.084;2024-03-08T04:45:54;99403.38;;;-6.53;100.00
53011;BME280;42803;55.762;38.084;2024-03-08T04:48:23;99400.16;;;-6.52;100.00
53011;BME280;42803;55.762;38.084;2024-03-08T04:50:54;99393.22;;;-6.53;100.00
53011;BME280;42803;55.762;38.084;2024-03-08T04:53:24;99401.53;;;-6.48;100.00
53011;BME280;42803;55.762;38.084;2024-03-08T04:55:53;99402.34;;;-6.42;100.00
53011;BME280;42803;55.762;38.084;2024-03-08T04:58:26;99398.19;;;-6.42;100.00
53011;BME280;42803;55.762;38.084;2024-03-08T05:00:56;99398.44;;;-6.40;100.00
53011;BME280;42803;55.762;38.084;2024-03-08T05:03:25;99391.09;;;-6.44;100.00
53011;BME280;42803;55.762;38.084;2024-03-08T05:05:54;99388.94;;;-6.41;100.00
53011;BME280;42803;55.762;38.084;2024-03-08T05:08:24;99384.84;;;-6.46;100.00
53011;BME280;42803;55.762;38.084;2024-03-08T05:10:54;99385.34;;;-6.49;100.00
53011;BME280;42803;55.762;38.084;2024-03-08T05:13:23;99388.03;;;-6.42;100.00
53011;BME280;42803;55.762;38.084;2024-03-08T05:15:53;99380.13;;;-6.38;100.00
53011;BME280;42803;55.762;38.084;2024-03-08T05:18:26;99380.84;;;-6.39;100.00
53011;BME280;42803;55.762;38.084;2024-03-08T05:20:56;99383.34;;;-6.33;100.00
53011;BME280;42803;55.762;38.084;2024-03-08T05:23:25;99380.91;;;-6.26;100.00
53011;BME280;42803;55.762;38.084;2024-03-08T05:25:54;99376.00;;;-6.19;100.00
53011;BME280;42803;55.762;38.084;2024-03-08T05:28:23;99376.66;;;-6.14;100.00
53011;BME280;42803;55.762;38.084;2024-03-08T05:30:54;99373.75;;;-6.04;100.00
53011;BME280;42803;55.762;38.084;2024-03-08T05:33:24;99373.53;;;-6.06;100.00
53011;BME280;42803;55.762;38.084;2024-03-08T05:35:53;99377.41;;;-6.02;100.00
53011;BME280;42803;55.762;38.084;2024-03-08T05:38:22;99368.09;;;-5.96;100.00
53011;BME280;42803;55.762;38.084;2024-03-08T05:40:52;99368.41;;;-5.88;100.00
53011;BME280;42803;55.762;38.084;2024-03-08T05:43:22;99373.53;;;-5.75;100.00
53011;BME280;42803;55.762;38.084;2024-03-08T05:45:54;99365.34;;;-5.67;100.00
53011;BME280;42803;55.762;38.084;2024-03-08T05:48:23;99360.50;;;-5.52;100.00
53011;BME280;42803;55.762;38.084;2024-03-08T05:50:53;99365.94;;;-5.62;100.00
53011;BME280;42803;55.762;38.084;2024-03-08T05:53:22;99366.50;;;-5.52;100.00
53011;BME280;42803;55.762;38.084;2024-03-08T05:55:51;99369.25;;;-5.50;100.00
53011;BME280;42803;55.762;38.084;2024-03-08T05:58:21;99367.13;;;-5.34;100.00
53011;BME280;42803;55.762;38.084;2024-03-08T06:00:51;99364.75;;;-5.15;100.00
53011;BME280;42803;55.762;38.084;2024-03-08T06:03:22;99355.09;;;-5.04;100.00
53011;BME280;42803;55.762;38.084;2024-03-08T06:05:51;99355.72;;;-4.87;100.00
53011;BME280;42803;55.762;38.084;2024-03-08T06:08:20;99368.66;;;-4.73;100.00
53011;BME280;42803;55.762;38.084;2024-03-08T06:10:49;99363.25;;;-4.81;100.00
53011;BME280;42803;55.762;38.084;2024-03-08T06:13:20;99358.56;;;-4.78;100.00
53011;BME280;42803;55.762;38.084;2024-03-08T06:15:49;99360.41;;;-4.64;100.00
53011;BME280;42803;55.762;38.084;2024-03-08T06:18:19;99360.41;;;-4.64;100.00
53011;BME280;42803;55.762;38.084;2024-03-08T06:20:49;99356.72;;;-4.67;100.00
53011;BME280;42803;55.762;38.084;2024-03-08T06:23:23;99358.34;;;-4.54;100.00
53011;BME280;42803;55.762;38.084;2024-03-08T06:25:52;99355.25;;;-4.39;99.94
53011;BME280;42803;55.762;38.084;2024-03-08T06:28:22;99352.06;;;-4.18;98.98
53011;BME280;42803;55.762;38.084;2024-03-08T06:30:51;99348.13;;;-4.29;98.15
53011;BME280;42803;55.762;38.084;2024-03-08T06:33:20;99349.63;;;-4.24;98.13
53011;BME280;42803;55.762;38.084;2024-03-08T06:35:53;99347.25;;;-4.09;97.77
53011;BME280;42803;55.762;38.084;2024-03-08T06:38:25;99344.78;;;-4.02;97.01
53011;BME280;42803;55.762;38.084;2024-03-08T06:40:54;99343.97;;;-4.08;96.58
53011;BME280;42803;55.762;38.084;2024-03-08T06:43:24;99346.25;;;-4.04;96.33
53011;BME280;42803;55.762;38.084;2024-03-08T06:46:00;99343.88;;;-4.03;96.06
53011;BME280;42803;55.762;38.084;2024-03-08T06:48:31;99343.38;;;-4.00;96.03
53011;BME280;42803;55.762;38.084;2024-03-08T06:51:03;99351.53;;;-4.03;96.15
53011;BME280;42803;55.762;38.084;2024-03-08T06:53:32;99351.78;;;-3.94;96.05
53011;BME280;42803;55.762;38.084;2024-03-08T06:56:03;99349.25;;;-3.94;95.35
53011;BME280;42803;55.762;38.084;2024-03-08T06:58:32;99353.69;;;-3.86;95.75
53011;BME280;42803;55.762;38.084;2024-03-08T07:01:01;99357.22;;;-3.78;95.22
53011;BME280;42803;55.762;38.084;2024-03-08T07:03:32;99354.25;;;-3.69;95.08
53011;BME280;42803;55.762;38.084;2024-03-08T07:06:03;99349.66;;;-3.51;94.60
53011;BME280;42803;55.762;38.084;2024-03-08T07:08:36;99356.16;;;-3.60;93.88
53011;BME280;42803;55.762;38.084;2024-03-08T07:11:08;99351.22;;;-3.59;94.15
53011;BME280;42803;55.762;38.084;2024-03-08T07:13:38;99361.47;;;-3.39;93.90
53011;BME280;42803;55.762;38.084;2024-03-08T07:16:07;99350.34;;;-3.39;93.45
53011;BME280;42803;55.762;38.084;2024-03-08T07:18:37;99345.97;;;-3.13;92.86
53011;BME280;42803;55.762;38.084;2024-03-08T07:21:11;99351.34;;;-3.05;91.62
53011;BME280;42803;55.762;38.084;2024-03-08T07:23:46;99352.03;;;-2.86;91.05
53011;BME280;42803;55.762;38.084;2024-03-08T07:26:31;99341.16;;;-2.71;90.50
53011;BME280;42803;55.762;38.084;2024-03-08T07:29:01;99337.59;;;-2.58;89.43
53011;BME280;42803;55.762;38.084;2024-03-08T07:31:30;99343.50;;;-2.72;89.54
53011;BME280;42803;55.762;38.084;2024-03-08T07:34:13;99349.66;;;-2.50;89.35
53011;BME280;42803;55.762;38.084;2024-03-08T07:36:46;99341.66;;;-2.46;89.45
53011;BME280;42803;55.762;38.084;2024-03-08T07:39:35;99328.59;;;-2.28;88.54
53011;BME280;42803;55.762;38.084;2024-03-08T07:42:05;99334.16;;;-2.03;87.48
53011;BME280;42803;55.762;38.084;2024-03-08T07:44:34;99333.78;;;-1.99;86.75
53011;BME280;42803;55.762;38.084;2024-03-08T07:47:04;99348.38;;;-2.12;86.18
53011;BME280;42803;55.762;38.084;2024-03-08T07:49:37;99332.13;;;-2.13;87.05
53011;BME280;42803;55.762;38.084;2024-03-08T07:52:07;99327.94;;;-2.05;86.94
53011;BME280;42803;55.762;38.084;2024-03-08T07:54:36;99329.97;;;-1.88;86.96
53011;BME280;42803;55.762;38.084;2024-03-08T07:57:06;99345.09;;;-2.11;86.93
53011;BME280;42803;55.762;38.084;2024-03-08T07:59:52;99336.34;;;-1.99;87.10
53011;BME280;42803;55.762;38.084;2024-03-08T08:02:21;99323.09;;;-1.75;86.40
53011;BME280;42803;55.762;38.084;2024-03-08T08:04:51;99315.25;;;-1.55;85.41
53011;BME280;42803;55.762;38.084;2024-03-08T08:07:22;99316.88;;;-1.34;85.49
53011;BME280;42803;55.762;38.084;2024-03-08T08:09:54;99309.56;;;-1.03;84.16
53011;BME280;42803;55.762;38.084;2024-03-08T08:12:24;99310.44;;;-0.88;83.58
53011;BME280;42803;55.762;38.084;2024-03-08T08:14:53;99311.84;;;-0.61;82.93
53011;BME280;42803;55.762;38.084;2024-03-08T08:17:39;99328.03;;;-0.91;82.68
53011;BME280;42803;55.762;38.084;2024-03-08T08:20:11;99320.72;;;-1.09;83.98
53011;BME280;42803;55.762;38.084;2024-03-08T08:22:42;99314.09;;;-0.86;83.50
53011;BME280;42803;55.762;38.084;2024-03-08T08:25:12;99319.22;;;-0.86;82.79
53011;BME280;42803;55.762;38.084;2024-03-08T08:27:44;99324.53;;;-0.84;83.38
53011;BME280;42803;55.762;38.084;2024-03-08T08:30:14;99320.41;;;-0.54;82.75
53011;BME280;42803;55.762;38.084;2024-03-08T08:32:43;99321.41;;;-0.82;82.21
53011;BME280;42803;55.762;38.084;2024-03-08T08:35:15;99314.13;;;-1.00;83.52
53011;BME280;42803;55.762;38.084;2024-03-08T08:37:48;99320.72;;;-0.95;83.78
53011;BME280;42803;55.762;38.084;2024-03-08T08:40:17;99315.28;;;-0.54;83.09
53011;BME280;42803;55.762;38.084;2024-03-08T08:42:47;99305.31;;;-0.22;81.92
53011;BME280;42803;55.762;38.084;2024-03-08T08:45:17;99307.00;;;-0.37;81.44
53011;BME280;42803;55.762;38.084;2024-03-08T08:47:52;99307.28;;;-0.19;81.64
53011;BME280;42803;55.762;38.084;2024-03-08T08:50:22;99309.44;;;-0.08;81.60
53011;BME280;42803;55.762;38.084;2024-03-08T08:52:54;99302.81;;;0.01;80.51
53011;BME280;42803;55.762;38.084;2024-03-08T08:55:23;99307.16;;;0.09;80.88
53011;BME280;42803;55.762;38.084;2024-03-08T08:57:54;99299.75;;;-0.11;80.85
53011;BME280;42803;55.762;38.084;2024-03-08T09:00:25;99308.03;;;-0.20;81.05
53011;BME280;42803;55.762;38.084;2024-03-08T09:02:56;99298.84;;;-0.11;81.38
53011;BME280;42803;55.762;38.084;2024-03-08T09:05:26;99295.56;;;-0.17;80.85
53011;BME280;42803;55.762;38.084;2024-03-08T09:07:57;99298.88;;;-0.18;81.32
53011;BME280;42803;55.762;38.084;2024-03-08T09:10:28;99294.00;;;-0.01;81.41
53011;BME280;42803;55.762;38.084;2024-03-08T09:12:58;99289.44;;;-0.34;81.06
53011;BME280;42803;55.762;38.084;2024-03-08T09:15:28;99294.31;;;-0.28;81.93
53011;BME280;42803;55.762;38.084;2024-03-08T09:17:57;99288.59;;;-0.11;81.72
53011;BME280;42803;55.762;38.084;2024-03-08T09:20:28;99287.94;;;0.06;81.40
53011;BME280;42803;55.762;38.084;2024-03-08T09:23:02;99281.75;;;-0.04;81.21
53011;BME280;42803;55.762;38.084;2024-03-08T09:25:32;99286.72;;;-0.12;82.03
53011;BME280;42803;55.762;38.084;2024-03-08T09:28:02;99291.28;;;-0.47;82.68
53011;BME280;42803;55.762;38.084;2024-03-08T09:30:33;99285.41;;;-0.39;83.60
53011;BME280;42803;55.762;38.084;2024-03-08T09:33:07;99287.81;;;-0.03;82.07
53011;BME280;42803;55.762;38.084;2024-03-08T09:35:37;99293.91;;;-0.17;82.22
53011;BME280;42803;55.762;38.084;2024-03-08T09:38:27;99285.59;;;0.00;82.09
53011;BME280;42803;55.762;38.084;2024-03-08T09:40:57;99284.84;;;0.01;81.59
53011;BME280;42803;55.762;38.084;2024-03-08T09:43:27;99280.38;;;0.07;81.55
53011;BME280;42803;55.762;38.084;2024-03-08T09:46:00;99285.44;;;0.21;80.99
53011;BME280;42803;55.762;38.084;2024-03-08T09:48:29;99289.59;;;0.58;80.03
53011;BME280;42803;55.762;38.084;2024-03-08T09:50:59;99288.97;;;0.38;80.23
53011;BME280;42803;55.762;38.084;2024-03-08T09:53:30;99282.28;;;0.54;80.03
53011;BME280;42803;55.762;38.084;2024-03-08T09:55:59;99282.09;;;0.53;79.98
53011;BME280;42803;55.762;38.084;2024-03-08T09:58:32;99281.22;;;0.45;80.06
53011;BME280;42803;55.762;38.084;2024-03-08T10:01:15;99276.75;;;0.35;80.23
53011;BME280;42803;55.762;38.084;2024-03-08T10:03:47;99287.66;;;0.18;81.12
53011;BME280;42803;55.762;38.084;2024-03-08T10:06:22;99286.31;;;-0.01;82.14
53011;BME280;42803;55.762;38.084;2024-03-08T10:08:53;99284.94;;;-0.20;82.33
53011;BME280;42803;55.762;38.084;2024-03-08T10:11:25;99279.03;;;0.18;82.77
53011;BME280;42803;55.762;38.084;2024-03-08T10:14:05;99281.53;;;0.32;81.15
53011;BME280;42803;55.762;38.084;2024-03-08T10:16:38;99282.56;;;0.11;81.62
53011;BME280;42803;55.762;38.084;2024-03-08T10:19:09;99277.81;;;0.07;82.25
53011;BME280;42803;55.762;38.084;2024-03-08T10:21:48;99287.97;;;0.29;82.05
53011;BME280;42803;55.762;38.084;2024-03-08T10:24:19;99282.81;;;0.29;81.66
53011;BME280;42803;55.762;38.084;2024-03-08T10:26:48;99273.13;;;-0.04;82.28
53011;BME280;42803;55.762;38.084;2024-03-08T10:29:20;99287.75;;;0.04;82.72
53011;BME280;42803;55.762;38.084;2024-03-08T10:31:50;99298.19;;;-0.32;83.31
53011;BME280;42803;55.762;38.084;2024-03-08T10:34:23;99288.06;;;-0.60;84.48
53011;BME280;42803;55.762;38.084;2024-03-08T10:36:53;99269.03;;;-0.77;85.25
53011;BME280;42803;55.762;38.084;2024-03-08T10:39:34;99276.03;;;-0.83;86.47
53011;BME280;42803;55.762;38.084;2024-03-08T10:42:05;99290.78;;;-0.59;86.39
53011;BME280;42803;55.762;38.084;2024-03-08T10:45:04;99266.38;;;-0.04;83.97
53011;BME280;42803;55.762;38.084;2024-03-08T10:47:40;99274.16;;;0.12;83.20
53011;BME280;42803;55.762;38.084;2024-03-08T10:50:18;99268.56;;;0.23;82.48
53011;BME280;42803;55.762;38.084;2024-03-08T10:52:50;99269.16;;;0.44;81.57
53011;BME280;42803;55.762;38.084;2024-03-08T10:55:24;99256.00;;;0.34;81.81
53011;BME280;42803;55.762;38.084;2024-03-08T10:57:59;99275.53;;;0.24;81.89
53011;BME280;42803;55.762;38.084;2024-03-08T11:00:31;99273.47;;;0.52;81.60
53011;BME280;42803;55.762;38.084;2024-03-08T11:03:02;99268.78;;;0.41;81.14
53011;BME280;42803;55.762;38.084;2024-03-08T11:05:35;99274.72;;;0.33;81.71
53011;BME280;42803;55.762;38.084;2024-03-08T11:08:17;99279.06;;;0.41;81.83
53011;BME280;42803;55.762;38.084;2024-03-08T11:10:52;99273.59;;;0.38;81.87
53011;BME280;42803;55.762;38.084;2024-03-08T11:13:34;99256.44;;;0.68;81.74
53011;BME280;42803;55.762;38.084;2024-03-08T11:16:07;99263.09;;;0.66;81.44
53011;BME280;42803;55.762;38.084;2024-03-08T11:18:38;99267.94;;;0.56;81.51
53011;BME280;42803;55.762;38.084;2024-03-08T11:21:09;99263.72;;;0.57;82.06
53011;BME280;42803;55.762;38.084;2024-03-08T11:23:59;99260.22;;;0.56;82.33
53011;BME280;42803;55.762;38.084;2024-03-08T11:26:31;99260.84;;;0.54;82.35
53011;BME280;42803;55.762;38.084;2024-03-08T11:29:34;99263.56;;;0.55;82.26
53011;BME280;42803;55.762;38.084;2024-03-08T11:32:11;99262.69;;;0.70;81.67
53011;BME280;42803;55.762;38.084;2024-03-08T11:34:42;99258.31;;;0.69;81.87
53011;BME280;42803;55.762;38.084;2024-03-08T11:37:13;99252.00;;;0.75;81.96
53011;BME280;42803;55.762;38.084;2024-03-08T11:39:50;99265.94;;;0.77;81.25
53011;BME280;42803;55.762;38.084;2024-03-08T11:42:21;99253.47;;;0.72;81.38
53011;BME280;42803;55.762;38.084;2024-03-08T11:44:50;99253.59;;;0.81;80.79
53011;BME280;42803;55.762;38.084;2024-03-08T11:47:21;99256.09;;;0.88;80.33
53011;BME280;42803;55.762;38.084;2024-03-08T11:49:50;99249.69;;;0.69;80.90
53011;BME280;42803;55.762;38.084;2024-03-08T11:52:21;99255.09;;;0.33;81.08
53011;BME280;42803;55.762;38.084;2024-03-08T11:54:54;99257.16;;;0.29;82.30
53011;BME280;42803;55.762;38.084;2024-03-08T11:57:28;99258.88;;;0.44;82.25
53011;BME280;42803;55.762;38.084;2024-03-08T11:59:58;99261.91;;;0.33;82.24
53011;BME280;42803;55.762;38.084;2024-03-08T12:02:37;99268.91;;;0.49;82.59
53011;BME280;42803;55.762;38.084;2024-03-08T12:05:09;99262.59;;;0.39;82.21
53011;BME280;42803;55.762;38.084;2024-03-08T12:07:38;99266.22;;;0.41;82.22
53011;BME280;42803;55.762;38.084;2024-03-08T12:10:17;99267.19;;;0.34;82.22
53011;BME280;42803;55.762;38.084;2024-03-08T12:12:49;99257.50;;;0.32;82.35
53011;BME280;42803;55.762;38.084;2024-03-08T12:15:21;99259.84;;;0.07;82.49
53011;BME280;42803;55.762;38.084;2024-03-08T12:17:53;99255.09;;;0.10;83.08
53011;BME280;42803;55.762;38.084;2024-03-08T12:20:24;99253.63;;;0.12;83.24
53011;BME280;42803;55.762;38.084;2024-03-08T12:22:55;99252.25;;;0.00;83.23
53011;BME280;42803;55.762;38.084;2024-03-08T12:25:30;99254.97;;;0.02;83.48
53011;BME280;42803;55.762;38.084;2024-03-08T12:28:09;99252.28;;;-0.07;83.70
53011;BME280;42803;55.762;38.084;2024-03-08T12:30:46;99258.59;;;0.04;83.85
53011;BME280;42803;55.762;38.084;2024-03-08T12:33:16;99263.13;;;0.13;84.52
53011;BME280;42803;55.762;38.084;2024-03-08T12:35:53;99269.94;;;0.36;82.92
53011;BME280;42803;55.762;38.084;2024-03-08T12:38:27;99275.88;;;0.28;82.13
53011;BME280;42803;55.762;38.084;2024-03-08T12:40:59;99262.25;;;0.36;82.09
53011;BME280;42803;55.762;38.084;2024-03-08T12:43:32;99264.47;;;0.33;81.78
53011;BME280;42803;55.762;38.084;2024-03-08T12:46:02;99263.00;;;0.35;81.57
53011;BME280;42803;55.762;38.084;2024-03-08T12:48:48;99271.19;;;0.16;81.37
53011;BME280;42803;55.762;38.084;2024-03-08T12:51:18;99269.25;;;0.30;81.90
53011;BME280;42803;55.762;38.084;2024-03-08T12:53:49;99272.81;;;0.23;81.75
53011;BME280;42803;55.762;38.084;2024-03-08T12:56:28;99274.94;;;0.04;82.27
53011;BME280;42803;55.762;38.084;2024-03-08T12:59:00;99271.63;;;0.05;82.20
53011;BME280;42803;55.762;38.084;2024-03-08T13:01:32;99272.41;;;-0.03;82.62
53011;BME280;42803;55.762;38.084;2024-03-08T13:04:05;99277.00;;;-0.08;83.07
53011;BME280;42803;55.762;38.084;2024-03-08T13:06:39;99267.47;;;-0.09;83.10
53011;BME280;42803;55.762;38.084;2024-03-08T13:09:08;99270.06;;;-0.16;83.64
53011;BME280;42803;55.762;38.084;2024-03-08T13:14:30;99264.44;;;-0.20;83.82